sensor_id;sensor_type;location;lat;lon;timestamp;pressure;altitude;pressure_sealevel;temperature;humidity
2549;BME280;1284;53.520;10.248;2023-05-25T00:01:50;101691.31;;;14.54;82.92
2549;BME280;1284;53.520;10.248;2023-05-25T00:04:18;101702.84;;;14.51;82.62
2549;BME280;1284;53.520;10.248;2023-05-25T00:06:45;101695.44;;;14.48;83.14
2549;BME280;1284;53.520;10.248;2023-05-25T00:09:11;101703.56;;;14.48;83.29
2549;BME280;1284;53.520;10.248;2023-05-25T00:11:37;101705.41;;;14.43;83.50
2549;BME280;1284;53.520;10.248;2023-05-25T00:14:03;101712.50;;;14.32;83.18
2549;BME280;1284;53.520;10.248;2023-05-25T00:16:29;101708.16;;;14.28;83.77
2549;BME280;1284;53.520;10.248;2023-05-25T00:19:03;101711.44;;;14.21;84.09
2549;BME280;1284;53.520;10.248;2023-05-25T00:21:30;101718.63;;;14.14;83.81
2549;BME280;1284;53.520;10.248;2023-05-25T00:23:58;101715.88;;;13.95;84.13
2549;BME280;1284;53.520;10.248;2023-05-25T00:26:24;101706.69;;;13.99;84.23
2549;BME280;1284;53.520;10.248;2023-05-25T00:28:50;101716.56;;;13.92;84.40
2549;BME280;1284;53.520;10.248;2023-05-25T00:31:15;101720.84;;;13.93;84.25
2549;BME280;1284;53.520;10.248;2023-05-25T00:33:41;101722.84;;;13.96;84.10
2549;BME280;1284;53.520;10.248;2023-05-25T00:36:07;101725.97;;;13.98;84.03
2549;BME280;1284;53.520;10.248;2023-05-25T00:38:35;101723.63;;;13.96;84.09
2549;BME280;1284;53.520;10.248;2023-05-25T00:41:01;101719.81;;;13.97;84.32
2549;BME280;1284;53.520;10.248;2023-05-25T00:43:26;101718.22;;;13.96;84.23
2549;BME280;1284;53.520;10.248;2023-05-25T00:45:52;101712.13;;;13.99;84.64
2549;BME280;1284;53.520;10.248;2023-05-25T00:48:18;101714.38;;;13.97;84.74
2549;BME280;1284;53.520;10.248;2023-05-25T00:50:44;101714.28;;;13.94;84.39
2549;BME280;1284;53.520;10.248;2023-05-25T00:53:12;101715.88;;;13.95;84.36
2549;BME280;1284;53.520;10.248;2023-05-25T00:55:50;101726.25;;;13.93;84.70
2549;BME280;1284;53.520;10.248;2023-05-25T00:58:20;101719.38;;;13.95;84.63
2549;BME280;1284;53.520;10.248;2023-05-25T01:00:49;101714.91;;;13.87;85.42
2549;BME280;1284;53.520;10.248;2023-05-25T01:03:18;101715.28;;;13.86;85.67
2549;BME280;1284;53.520;10.248;2023-05-25T01:05:50;101718.06;;;13.89;85.17
2549;BME280;1284;53.520;10.248;2023-05-25T01:08:16;101713.31;;;13.86;85.18
2549;BME280;1284;53.520;10.248;2023-05-25T01:10:44;101714.84;;;13.84;85.27
2549;BME280;1284;53.520;10.248;2023-05-25T01:13:16;101715.50;;;13.81;85.29
2549;BME280;1284;53.520;10.248;2023-05-25T01:15:42;101713.69;;;13.69;85.19
2549;BME280;1284;53.520;10.248;2023-05-25T01:18:07;101705.47;;;13.66;84.92
2549;BME280;1284;53.520;10.248;2023-05-25T01:20:34;101715.59;;;13.53;86.05
2549;BME280;1284;53.520;10.248;2023-05-25T01:23:05;101704.09;;;13.56;85.50
2549;BME280;1284;53.520;10.248;2023-05-25T01:25:47;101721.16;;;13.29;86.09
2549;BME280;1284;53.520;10.248;2023-05-25T01:28:19;101712.69;;;13.30;86.36
2549;BME280;1284;53.520;10.248;2023-05-25T01:30:48;101716.81;;;13.40;86.33
2549;BME280;1284;53.520;10.248;2023-05-25T01:33:15;101713.66;;;13.38;85.38
2549;BME280;1284;53.520;10.248;2023-05-25T01:35:43;101727.09;;;13.34;85.36
2549;BME280;1284;53.520;10.248;2023-05-25T01:38:09;101712.00;;;13.33;85.76
2549;BME280;1284;53.520;10.248;2023-05-25T01:40:35;101709.97;;;13.30;85.22
2549;BME280;1284;53.520;10.248;2023-05-25T01:43:02;101715.38;;;13.30;85.11
2549;BME280;1284;53.520;10.248;2023-05-25T01:45:28;101714.28;;;13.31;85.23
2549;BME280;1284;53.520;10.248;2023-05-25T01:50:30;101708.13;;;13.19;85.12
2549;BME280;1284;53.520;10.248;2023-05-25T01:53:15;101712.88;;;13.22;85.13
2549;BME280;1284;53.520;10.248;2023-05-25T01:55:48;101709.28;;;13.18;85.13
2549;BME280;1284;53.520;10.248;2023-05-25T01:58:17;101710.75;;;13.15;84.47
2549;BME280;1284;53.520;10.248;2023-05-25T02:00:45;101707.63;;;13.01;85.24
2549;BME280;1284;53.520;10.248;2023-05-25T02:03:12;101714.63;;;13.02;85.05
2549;BME280;1284;53.520;10.248;2023-05-25T02:05:40;101719.94;;;12.99;85.31
2549;BME280;1284;53.520;10.248;2023-05-25T02:08:06;101712.03;;;12.94;86.43
2549;BME280;1284;53.520;10.248;2023-05-25T02:10:31;101723.31;;;12.96;86.04
2549;BME280;1284;53.520;10.248;2023-05-25T02:12:56;101716.66;;;12.93;86.40
2549;BME280;1284;53.520;10.248;2023-05-25T02:15:23;101721.53;;;12.88;86.53
2549;BME280;1284;53.520;10.248;2023-05-25T02:17:48;101717.16;;;12.83;86.24
2549;BME280;1284;53.520;10.248;2023-05-25T02:20:14;101719.25;;;12.90;86.22
2549;BME280;1284;53.520;10.248;2023-05-25T02:22:40;101721.78;;;12.83;85.95
2549;BME280;1284;53.520;10.248;2023-05-25T02:25:06;101716.03;;;12.84;86.61
2549;BME280;1284;53.520;10.248;2023-05-25T02:27:34;101725.03;;;12.88;85.98
2549;BME280;1284;53.520;10.248;2023-05-25T02:29:59;101718.81;;;12.88;85.86
2549;BME280;1284;53.520;10.248;2023-05-25T02:32:27;101719.31;;;12.78;85.91
2549;BME280;1284;53.520;10.248;2023-05-25T02:34:53;101727.53;;;12.81;86.10
2549;BME280;1284;53.520;10.248;2023-05-25T02:37:19;101717.28;;;12.75;85.41
2549;BME280;1284;53.520;10.248;2023-05-25T02:39:46;101718.09;;;12.75;85.76
2549;BME280;1284;53.520;10.248;2023-05-25T02:42:12;101718.09;;;12.75;85.40
2549;BME280;1284;53.520;10.248;2023-05-25T02:44:37;101719.09;;;12.70;85.11
2549;BME280;1284;53.520;10.248;2023-05-25T02:47:03;101721.47;;;12.72;85.22
2549;BME280;1284;53.520;10.248;2023-05-25T02:49:28;101720.69;;;12.72;85.61
2549;BME280;1284;53.520;10.248;2023-05-25T02:51:54;101716.66;;;12.65;85.30
2549;BME280;1284;53.520;10.248;2023-05-25T02:54:20;101721.63;;;12.63;85.21
2549;BME280;1284;53.520;10.248;2023-05-25T02:56:45;101715.75;;;12.61;85.57
2549;BME280;1284;53.520;10.248;2023-05-25T02:59:13;101712.84;;;12.54;85.91
2549;BME280;1284;53.520;10.248;2023-05-25T03:01:39;101716.78;;;12.45;86.30
2549;BME280;1284;53.520;10.248;2023-05-25T03:06:51;101722.09;;;12.53;86.43
2549;BME280;1284;53.520;10.248;2023-05-25T03:09:20;101728.81;;;12.59;86.11
2549;BME280;1284;53.520;10.248;2023-05-25T03:11:48;101732.41;;;12.63;86.00
2549;BME280;1284;53.520;10.248;2023-05-25T03:14:15;101730.50;;;12.64;86.46
2549;BME280;1284;53.520;10.248;2023-05-25T03:16:46;101741.66;;;12.62;86.59
2549;BME280;1284;53.520;10.248;2023-05-25T03:19:13;101743.56;;;12.62;86.69
2549;BME280;1284;53.520;10.248;2023-05-25T03:21:38;101742.00;;;12.61;86.90
2549;BME280;1284;53.520;10.248;2023-05-25T03:24:05;101739.38;;;12.64;87.54
2549;BME280;1284;53.520;10.248;2023-05-25T03:26:31;101748.59;;;12.76;87.49
2549;BME280;1284;53.520;10.248;2023-05-25T03:28:57;101749.25;;;12.85;87.41
2549;BME280;1284;53.520;10.248;2023-05-25T03:31:22;101754.84;;;12.92;88.05
2549;BME280;1284;53.520;10.248;2023-05-25T03:33:48;101757.66;;;12.95;88.30
2549;BME280;1284;53.520;10.248;2023-05-25T03:36:14;101755.47;;;13.13;87.90
2549;BME280;1284;53.520;10.248;2023-05-25T03:38:43;101747.03;;;13.14;89.09
2549;BME280;1284;53.520;10.248;2023-05-25T03:41:08;101759.59;;;13.22;89.14
2549;BME280;1284;53.520;10.248;2023-05-25T03:43:34;101757.66;;;13.35;88.77
2549;BME280;1284;53.520;10.248;2023-05-25T03:46:00;101752.06;;;13.43;88.78
2549;BME280;1284;53.520;10.248;2023-05-25T03:48:26;101764.13;;;13.46;89.24
2549;BME280;1284;53.520;10.248;2023-05-25T03:50:52;101758.03;;;13.49;89.56
2549;BME280;1284;53.520;10.248;2023-05-25T03:56:06;101758.88;;;13.53;90.49
2549;BME280;1284;53.520;10.248;2023-05-25T03:58:32;101774.00;;;13.54;90.34
2549;BME280;1284;53.520;10.248;2023-05-25T04:00:57;101763.09;;;13.50;91.02
2549;BME280;1284;53.520;10.248;2023-05-25T04:03:23;101760.47;;;13.54;91.31
2549;BME280;1284;53.520;10.248;2023-05-25T04:05:48;101774.81;;;13.54;90.95
2549;BME280;1284;53.520;10.248;2023-05-25T04:08:14;101770.38;;;13.62;90.73
2549;BME280;1284;53.520;10.248;2023-05-25T04:10:44;101777.78;;;13.65;90.75
2549;BME280;1284;53.520;10.248;2023-05-25T04:13:10;101774.38;;;13.68;91.05
2549;BME280;1284;53.520;10.248;2023-05-25T04:15:36;101782.41;;;13.65;90.60
2549;BME280;1284;53.520;10.248;2023-05-25T04:18:11;101785.97;;;13.69;90.62
2549;BME280;1284;53.520;10.248;2023-05-25T04:20:36;101786.88;;;13.73;90.77
2549;BME280;1284;53.520;10.248;2023-05-25T04:23:03;101776.66;;;13.66;91.06
2549;BME280;1284;53.520;10.248;2023-05-25T04:25:28;101783.97;;;13.66;91.23
2549;BME280;1284;53.520;10.248;2023-05-25T04:27:54;101788.38;;;13.70;90.89
2549;BME280;1284;53.520;10.248;2023-05-25T04:30:37;101794.66;;;13.74;90.72
2549;BME280;1284;53.520;10.248;2023-05-25T04:33:10;101796.03;;;13.68;91.27
2549;BME280;1284;53.520;10.248;2023-05-25T04:35:55;101801.09;;;13.70;90.83
2549;BME280;1284;53.520;10.248;2023-05-25T04:38:23;101798.91;;;13.59;91.16
2549;BME280;1284;53.520;10.248;2023-05-25T04:43:39;101797.38;;;13.74;91.37
2549;BME280;1284;53.520;10.248;2023-05-25T04:46:04;101806.34;;;13.78;91.05
2549;BME280;1284;53.520;10.248;2023-05-25T04:48:32;101797.81;;;13.76;91.00
2549;BME280;1284;53.520;10.248;2023-05-25T04:50:58;101809.84;;;13.79;90.37
2549;BME280;1284;53.520;10.248;2023-05-25T04:53:28;101816.06;;;13.79;90.81
2549;BME280;1284;53.520;10.248;2023-05-25T04:55:54;101819.63;;;13.68;91.21
2549;BME280;1284;53.520;10.248;2023-05-25T04:58:22;101817.97;;;13.79;90.82
2549;BME280;1284;53.520;10.248;2023-05-25T05:00:48;101813.78;;;13.81;91.12
2549;BME280;1284;53.520;10.248;2023-05-25T05:03:14;101814.66;;;13.85;90.87
2549;BME280;1284;53.520;10.248;2023-05-25T05:05:39;101813.63;;;13.90;90.56
2549;BME280;1284;53.520;10.248;2023-05-25T05:08:08;101818.78;;;13.95;90.30
2549;BME280;1284;53.520;10.248;2023-05-25T05:10:34;101816.25;;;14.02;90.33
2549;BME280;1284;53.520;10.248;2023-05-25T05:12:59;101819.75;;;14.02;90.35
2549;BME280;1284;53.520;10.248;2023-05-25T05:15:25;101820.47;;;14.15;89.84
2549;BME280;1284;53.520;10.248;2023-05-25T05:17:52;101817.63;;;14.11;89.67
2549;BME280;1284;53.520;10.248;2023-05-25T05:20:18;101823.06;;;14.11;89.81
2549;BME280;1284;53.520;10.248;2023-05-25T05:22:44;101818.50;;;14.15;89.71
2549;BME280;1284;53.520;10.248;2023-05-25T05:25:10;101821.75;;;14.21;89.49
2549;BME280;1284;53.520;10.248;2023-05-25T05:27:36;101825.34;;;14.40;90.06
2549;BME280;1284;53.520;10.248;2023-05-25T05:30:08;101820.09;;;14.63;89.43
2549;BME280;1284;53.520;10.248;2023-05-25T05:32:33;101821.31;;;14.85;88.73
2549;BME280;1284;53.520;10.248;2023-05-25T05:34:59;101831.81;;;15.02;87.74
2549;BME280;1284;53.520;10.248;2023-05-25T05:37:38;101829.38;;;15.16;86.89
2549;BME280;1284;53.520;10.248;2023-05-25T05:40:05;101828.81;;;15.26;86.08
2549;BME280;1284;53.520;10.248;2023-05-25T05:42:33;101837.69;;;15.42;85.61
2549;BME280;1284;53.520;10.248;2023-05-25T05:45:01;101835.16;;;15.53;84.12
2549;BME280;1284;53.520;10.248;2023-05-25T05:47:27;101844.84;;;15.50;83.21
2549;BME280;1284;53.520;10.248;2023-05-25T05:49:52;101839.25;;;15.43;83.17
2549;BME280;1284;53.520;10.248;2023-05-25T05:52:18;101840.13;;;15.47;82.99
2549;BME280;1284;53.520;10.248;2023-05-25T05:54:43;101845.09;;;15.45;82.53
2549;BME280;1284;53.520;10.248;2023-05-25T05:57:11;101848.56;;;15.42;82.74
2549;BME280;1284;53.520;10.248;2023-05-25T05:59:37;101845.53;;;15.47;82.26
2549;BME280;1284;53.520;10.248;2023-05-25T06:02:02;101842.81;;;15.47;82.34
2549;BME280;1284;53.520;10.248;2023-05-25T06:04:28;101846.19;;;15.60;82.26
2549;BME280;1284;53.520;10.248;2023-05-25T06:06:54;101843.53;;;15.63;82.10
2549;BME280;1284;53.520;10.248;2023-05-25T06:09:20;101839.66;;;15.64;81.68
2549;BME280;1284;53.520;10.248;2023-05-25T06:11:46;101843.81;;;15.77;82.00
2549;BME280;1284;53.520;10.248;2023-05-25T06:17:00;101854.16;;;16.13;79.67
2549;BME280;1284;53.520;10.248;2023-05-25T06:19:25;101861.88;;;16.34;78.85
2549;BME280;1284;53.520;10.248;2023-05-25T06:21:51;101862.47;;;16.47;76.85
2549;BME280;1284;53.520;10.248;2023-05-25T06:24:20;101869.69;;;16.58;76.83
2549;BME280;1284;53.520;10.248;2023-05-25T06:26:46;101868.16;;;16.61;75.47
2549;BME280;1284;53.520;10.248;2023-05-25T06:29:13;101865.84;;;16.63;74.61
2549;BME280;1284;53.520;10.248;2023-05-25T06:31:39;101874.13;;;16.70;74.06
2549;BME280;1284;53.520;10.248;2023-05-25T06:34:04;101870.41;;;16.81;74.41
2549;BME280;1284;53.520;10.248;2023-05-25T06:36:30;101869.47;;;16.96;74.23
2549;BME280;1284;53.520;10.248;2023-05-25T06:38:57;101865.19;;;16.95;73.49
2549;BME280;1284;53.520;10.248;2023-05-25T06:41:22;101872.00;;;17.12;72.24
2549;BME280;1284;53.520;10.248;2023-05-25T06:43:48;101864.72;;;17.20;71.01
2549;BME280;1284;53.520;10.248;2023-05-25T06:46:22;101871.88;;;17.31;71.52
2549;BME280;1284;53.520;10.248;2023-05-25T06:48:47;101871.16;;;17.34;71.09
2549;BME280;1284;53.520;10.248;2023-05-25T06:51:13;101875.28;;;17.54;71.27
2549;BME280;1284;53.520;10.248;2023-05-25T06:53:38;101878.59;;;17.70;69.18
2549;BME280;1284;53.520;10.248;2023-05-25T06:56:04;101871.69;;;17.80;69.82
2549;BME280;1284;53.520;10.248;2023-05-25T06:58:30;101867.31;;;18.09;67.90
2549;BME280;1284;53.520;10.248;2023-05-25T07:00:56;101875.63;;;18.23;67.93
2549;BME280;1284;53.520;10.248;2023-05-25T07:03:21;101885.84;;;18.33;66.67
2549;BME280;1284;53.520;10.248;2023-05-25T07:05:47;101881.72;;;18.49;64.53
2549;BME280;1284;53.520;10.248;2023-05-25T07:08:12;101881.47;;;18.72;65.26
2549;BME280;1284;53.520;10.248;2023-05-25T07:10:37;101885.94;;;18.94;62.46
2549;BME280;1284;53.520;10.248;2023-05-25T07:13:03;101879.75;;;19.01;62.26
2549;BME280;1284;53.520;10.248;2023-05-25T07:15:28;101884.53;;;19.21;62.06
2549;BME280;1284;53.520;10.248;2023-05-25T07:17:54;101886.97;;;19.40;60.73
2549;BME280;1284;53.520;10.248;2023-05-25T07:20:22;101885.44;;;19.50;61.25
2549;BME280;1284;53.520;10.248;2023-05-25T07:22:48;101894.47;;;19.61;59.16
2549;BME280;1284;53.520;10.248;2023-05-25T07:25:13;101880.78;;;19.50;57.09
2549;BME280;1284;53.520;10.248;2023-05-25T07:27:39;101888.59;;;19.52;57.85
2549;BME280;1284;53.520;10.248;2023-05-25T07:30:05;101882.78;;;19.60;57.54
2549;BME280;1284;53.520;10.248;2023-05-25T07:32:31;101876.91;;;19.69;57.82
2549;BME280;1284;53.520;10.248;2023-05-25T07:37:42;101884.00;;;19.88;57.53
2549;BME280;1284;53.520;10.248;2023-05-25T07:40:09;101889.06;;;19.78;58.46
2549;BME280;1284;53.520;10.248;2023-05-25T07:42:35;101891.44;;;19.98;57.58
2549;BME280;1284;53.520;10.248;2023-05-25T07:45:01;101902.81;;;20.10;57.74
2549;BME280;1284;53.520;10.248;2023-05-25T07:47:27;101900.47;;;20.05;57.21
2549;BME280;1284;53.520;10.248;2023-05-25T07:49:52;101909.06;;;20.07;57.60
2549;BME280;1284;53.520;10.248;2023-05-25T07:52:18;101904.34;;;20.08;57.41
2549;BME280;1284;53.520;10.248;2023-05-25T07:54:44;101903.59;;;20.18;57.47
2549;BME280;1284;53.520;10.248;2023-05-25T07:57:10;101906.78;;;20.51;56.00
2549;BME280;1284;53.520;10.248;2023-05-25T07:59:35;101910.66;;;20.72;56.33
2549;BME280;1284;53.520;10.248;2023-05-25T08:02:03;101904.81;;;20.77;54.84
2549;BME280;1284;53.520;10.248;2023-05-25T08:04:31;101910.66;;;20.82;53.74
2549;BME280;1284;53.520;10.248;2023-05-25T08:06:58;101916.91;;;20.93;54.08
2549;BME280;1284;53.520;10.248;2023-05-25T08:09:23;101909.03;;;21.27;53.07
2549;BME280;1284;53.520;10.248;2023-05-25T08:11:48;101908.59;;;21.42;52.84
2549;BME280;1284;53.520;10.248;2023-05-25T08:14:15;101913.63;;;21.51;53.06
2549;BME280;1284;53.520;10.248;2023-05-25T08:16:40;101910.56;;;21.35;52.16
2549;BME280;1284;53.520;10.248;2023-05-25T08:19:06;101918.69;;;21.52;51.50
2549;BME280;1284;53.520;10.248;2023-05-25T08:21:31;101915.94;;;21.60;52.89
2549;BME280;1284;53.520;10.248;2023-05-25T08:23:59;101915.47;;;21.75;51.79
2549;BME280;1284;53.520;10.248;2023-05-25T08:26:28;101921.25;;;21.98;51.55
2549;BME280;1284;53.520;10.248;2023-05-25T08:28:54;101915.81;;;21.88;50.34
2549;BME280;1284;53.520;10.248;2023-05-25T08:31:21;101920.47;;;21.98;50.01
2549;BME280;1284;53.520;10.248;2023-05-25T08:33:46;101911.84;;;21.96;50.19
2549;BME280;1284;53.520;10.248;2023-05-25T08:36:11;101922.44;;;21.94;51.45
2549;BME280;1284;53.520;10.248;2023-05-25T08:38:37;101925.13;;;22.08;49.91
2549;BME280;1284;53.520;10.248;2023-05-25T08:41:04;101939.03;;;22.34;48.63
2549;BME280;1284;53.520;10.248;2023-05-25T08:43:31;101924.75;;;22.57;47.75
2549;BME280;1284;53.520;10.248;2023-05-25T08:46:04;101926.00;;;22.45;47.14
2549;BME280;1284;53.520;10.248;2023-05-25T08:48:32;101931.06;;;22.54;47.77
2549;BME280;1284;53.520;10.248;2023-05-25T08:51:06;101930.59;;;22.66;47.47
2549;BME280;1284;53.520;10.248;2023-05-25T08:53:34;101927.78;;;22.73;48.36
2549;BME280;1284;53.520;10.248;2023-05-25T08:56:09;101932.81;;;22.82;49.40
2549;BME280;1284;53.520;10.248;2023-05-25T08:58:44;101943.63;;;22.52;48.97
2549;BME280;1284;53.520;10.248;2023-05-25T09:01:13;101932.63;;;22.59;48.14
2549;BME280;1284;53.520;10.248;2023-05-25T09:03:40;101943.47;;;22.76;48.54
2549;BME280;1284;53.520;10.248;2023-05-25T09:06:06;101947.88;;;22.63;49.18
2549;BME280;1284;53.520;10.248;2023-05-25T09:08:32;101947.00;;;22.73;49.48
2549;BME280;1284;53.520;10.248;2023-05-25T09:10:58;101944.94;;;22.88;47.95
2549;BME280;1284;53.520;10.248;2023-05-25T09:13:26;101950.59;;;23.07;46.30
2549;BME280;1284;53.520;10.248;2023-05-25T09:15:52;101954.69;;;23.29;45.69
2549;BME280;1284;53.520;10.248;2023-05-25T09:18:18;101949.31;;;23.56;45.55
2549;BME280;1284;53.520;10.248;2023-05-25T09:23:10;101952.47;;;23.55;45.15
2549;BME280;1284;53.520;10.248;2023-05-25T09:25:36;101952.72;;;23.34;45.29
2549;BME280;1284;53.520;10.248;2023-05-25T09:28:02;101948.75;;;23.38;46.01
2549;BME280;1284;53.520;10.248;2023-05-25T09:33:16;101954.09;;;23.49;44.99
2549;BME280;1284;53.520;10.248;2023-05-25T09:35:43;101953.19;;;23.89;44.52
2549;BME280;1284;53.520;10.248;2023-05-25T09:38:08;101947.97;;;23.98;44.32
2549;BME280;1284;53.520;10.248;2023-05-25T09:40:34;101953.84;;;24.00;44.34
2549;BME280;1284;53.520;10.248;2023-05-25T09:43:04;101954.63;;;24.04;43.98
2549;BME280;1284;53.520;10.248;2023-05-25T09:45:29;101956.03;;;24.12;44.01
2549;BME280;1284;53.520;10.248;2023-05-25T09:47:56;101959.81;;;24.25;43.96
2549;BME280;1284;53.520;10.248;2023-05-25T09:50:22;101964.31;;;24.39;43.91
2549;BME280;1284;53.520;10.248;2023-05-25T09:52:48;101961.09;;;24.44;42.70
2549;BME280;1284;53.520;10.248;2023-05-25T09:55:14;101962.41;;;24.59;43.25
2549;BME280;1284;53.520;10.248;2023-05-25T09:57:40;101968.88;;;24.75;42.94
2549;BME280;1284;53.520;10.248;2023-05-25T10:00:06;101970.34;;;24.80;42.64
2549;BME280;1284;53.520;10.248;2023-05-25T10:02:36;101958.00;;;24.88;42.46
2549;BME280;1284;53.520;10.248;2023-05-25T10:05:02;101958.47;;;25.06;42.14
2549;BME280;1284;53.520;10.248;2023-05-25T10:07:29;101957.72;;;25.25;42.41
2549;BME280;1284;53.520;10.248;2023-05-25T10:10:02;101965.28;;;25.21;41.90
2549;BME280;1284;53.520;10.248;2023-05-25T10:12:30;101957.44;;;25.20;42.17
2549;BME280;1284;53.520;10.248;2023-05-25T10:14:58;101957.19;;;25.34;41.78
2549;BME280;1284;53.520;10.248;2023-05-25T10:17:30;101961.03;;;25.36;42.31
2549;BME280;1284;53.520;10.248;2023-05-25T10:19:59;101966.03;;;25.45;42.00
2549;BME280;1284;53.520;10.248;2023-05-25T10:22:31;101968.00;;;25.64;41.78
2549;BME280;1284;53.520;10.248;2023-05-25T10:25:07;101965.34;;;25.60;40.77
2549;BME280;1284;53.520;10.248;2023-05-25T10:27:45;101971.81;;;25.89;39.08
2549;BME280;1284;53.520;10.248;2023-05-25T10:30:13;101973.44;;;25.87;39.81
2549;BME280;1284;53.520;10.248;2023-05-25T10:32:39;101975.16;;;25.81;38.66
2549;BME280;1284;53.520;10.248;2023-05-25T10:35:05;101977.56;;;25.79;38.96
2549;BME280;1284;53.520;10.248;2023-05-25T10:37:32;101978.97;;;25.87;40.25
2549;BME280;1284;53.520;10.248;2023-05-25T10:40:01;101973.84;;;26.05;39.71
2549;BME280;1284;53.520;10.248;2023-05-25T10:42:27;101974.47;;;26.29;39.57
2549;BME280;1284;53.520;10.248;2023-05-25T10:44:55;101979.94;;;26.16;39.74
2549;BME280;1284;53.520;10.248;2023-05-25T10:47:21;101975.41;;;26.06;38.09
2549;BME280;1284;53.520;10.248;2023-05-25T10:49:54;101973.72;;;25.73;39.52
2549;BME280;1284;53.520;10.248;2023-05-25T10:52:21;101974.22;;;26.07;40.89
2549;BME280;1284;53.520;10.248;2023-05-25T10:54:47;101971.72;;;25.93;39.70
2549;BME280;1284;53.520;10.248;2023-05-25T10:57:21;101957.06;;;25.96;38.39
2549;BME280;1284;53.520;10.248;2023-05-25T10:59:51;101964.28;;;26.10;39.60
2549;BME280;1284;53.520;10.248;2023-05-25T11:02:20;101972.06;;;26.31;39.26
2549;BME280;1284;53.520;10.248;2023-05-25T11:04:48;101958.25;;;26.31;39.22
2549;BME280;1284;53.520;10.248;2023-05-25T11:07:14;101961.91;;;26.44;38.83
2549;BME280;1284;53.520;10.248;2023-05-25T11:09:42;101958.81;;;26.42;38.68
2549;BME280;1284;53.520;10.248;2023-05-25T11:12:18;101964.06;;;26.52;38.81
2549;BME280;1284;53.520;10.248;2023-05-25T11:15:12;101956.34;;;26.60;37.97
2549;BME280;1284;53.520;10.248;2023-05-25T11:17:56;101957.84;;;26.32;38.79
2549;BME280;1284;53.520;10.248;2023-05-25T11:20:26;101959.44;;;26.14;39.47
2549;BME280;1284;53.520;10.248;2023-05-25T11:22:52;101950.94;;;26.24;39.64
2549;BME280;1284;53.520;10.248;2023-05-25T11:25:37;101948.16;;;26.24;38.57
2549;BME280;1284;53.520;10.248;2023-05-25T11:28:04;101952.28;;;26.16;39.20
2549;BME280;1284;53.520;10.248;2023-05-25T11:30:31;101950.16;;;26.04;39.21
2549;BME280;1284;53.520;10.248;2023-05-25T11:33:00;101950.81;;;25.76;39.95
2549;BME280;1284;53.520;10.248;2023-05-25T11:35:26;101947.19;;;25.79;39.89
2549;BME280;1284;53.520;10.248;2023-05-25T11:37:53;101941.22;;;25.80;40.03
2549;BME280;1284;53.520;10.248;2023-05-25T11:40:22;101942.00;;;25.45;40.50
2549;BME280;1284;53.520;10.248;2023-05-25T11:42:48;101946.81;;;25.41;41.23
2549;BME280;1284;53.520;10.248;2023-05-25T11:45:15;101942.75;;;25.46;40.74
2549;BME280;1284;53.520;10.248;2023-05-25T11:47:41;101955.56;;;25.56;39.76
2549;BME280;1284;53.520;10.248;2023-05-25T11:50:14;101948.25;;;25.65;40.84
2549;BME280;1284;53.520;10.248;2023-05-25T11:52:40;101948.19;;;25.69;39.39
2549;BME280;1284;53.520;10.248;2023-05-25T11:55:12;101950.34;;;25.97;40.77
2549;BME280;1284;53.520;10.248;2023-05-25T11:57:41;101944.88;;;26.29;39.53
2549;BME280;1284;53.520;10.248;2023-05-25T12:00:07;101951.69;;;26.41;39.45
2549;BME280;1284;53.520;10.248;2023-05-25T12:02:39;101942.13;;;26.29;38.73
2549;BME280;1284;53.520;10.248;2023-05-25T12:05:06;101948.78;;;26.32;38.78
2549;BME280;1284;53.520;10.248;2023-05-25T12:07:31;101944.19;;;26.25;37.54
2549;BME280;1284;53.520;10.248;2023-05-25T12:10:07;101930.91;;;26.01;38.33
2549;BME280;1284;53.520;10.248;2023-05-25T12:12:39;101938.31;;;26.23;39.16
2549;BME280;1284;53.520;10.248;2023-05-25T12:15:06;101937.25;;;26.17;39.37
2549;BME280;1284;53.520;10.248;2023-05-25T12:17:32;101937.97;;;26.37;38.91
2549;BME280;1284;53.520;10.248;2023-05-25T12:19:58;101928.16;;;26.36;38.04
2549;BME280;1284;53.520;10.248;2023-05-25T12:22:23;101930.28;;;26.45;38.85
2549;BME280;1284;53.520;10.248;2023-05-25T12:24:49;101917.94;;;26.49;38.59
2549;BME280;1284;53.520;10.248;2023-05-25T12:27:18;101924.06;;;26.41;39.22
2549;BME280;1284;53.520;10.248;2023-05-25T12:29:47;101921.16;;;25.96;39.18
2549;BME280;1284;53.520;10.248;2023-05-25T12:32:13;101920.34;;;26.15;39.82
2549;BME280;1284;53.520;10.248;2023-05-25T12:34:39;101915.69;;;26.12;38.75
2549;BME280;1284;53.520;10.248;2023-05-25T12:37:04;101910.06;;;26.16;40.07
2549;BME280;1284;53.520;10.248;2023-05-25T12:42:00;101918.78;;;26.14;41.19
2549;BME280;1284;53.520;10.248;2023-05-25T12:44:31;101922.94;;;26.06;39.74
2549;BME280;1284;53.520;10.248;2023-05-25T12:49:36;101931.50;;;25.92;39.51
2549;BME280;1284;53.520;10.248;2023-05-25T12:52:02;101928.59;;;25.99;40.08
2549;BME280;1284;53.520;10.248;2023-05-25T12:54:41;101919.84;;;25.84;40.15
2549;BME280;1284;53.520;10.248;2023-05-25T12:57:16;101923.94;;;25.76;40.75
2549;BME280;1284;53.520;10.248;2023-05-25T12:59:44;101924.28;;;25.62;39.79
2549;BME280;1284;53.520;10.248;2023-05-25T13:02:13;101912.44;;;25.62;40.54
2549;BME280;1284;53.520;10.248;2023-05-25T13:04:40;101910.75;;;25.68;40.00
2549;BME280;1284;53.520;10.248;2023-05-25T13:07:10;101901.81;;;25.80;39.67
2549;BME280;1284;53.520;10.248;2023-05-25T13:09:35;101903.09;;;25.75;39.64
2549;BME280;1284;53.520;10.248;2023-05-25T13:12:01;101903.94;;;25.72;40.19
2549;BME280;1284;53.520;10.248;2023-05-25T13:14:27;101903.53;;;25.74;39.98
2549;BME280;1284;53.520;10.248;2023-05-25T13:16:53;101905.53;;;25.89;40.32
2549;BME280;1284;53.520;10.248;2023-05-25T13:19:20;101893.94;;;25.78;40.06
2549;BME280;1284;53.520;10.248;2023-05-25T13:21:46;101889.72;;;25.74;40.04
2549;BME280;1284;53.520;10.248;2023-05-25T13:24:14;101895.88;;;25.62;40.23
2549;BME280;1284;53.520;10.248;2023-05-25T13:26:41;101897.28;;;25.70;39.32
2549;BME280;1284;53.520;10.248;2023-05-25T13:29:07;101884.84;;;25.62;40.60